sensor_id;sensor_type;location;lat;lon;timestamp;temperature;humidity
6174;DHT22;3120;48.796;9.796;2023-08-12T06:19:05;20.00;99.90
6174;DHT22;3120;48.796;9.796;2023-08-12T06:21:30;20.20;99.90
6174;DHT22;3120;48.796;9.796;2023-08-12T06:23:56;20.20;99.90
6174;DHT22;3120;48.796;9.796;2023-08-12T06:26:21;20.20;99.90
6174;DHT22;3120;48.796;9.796;2023-08-12T06:28:47;20.20;99.90
6174;DHT22;3120;48.796;9.796;2023-08-12T06:31:12;20.30;99.90
6174;DHT22;3120;48.796;9.796;2023-08-12T06:33:38;20.30;99.90
6174;DHT22;3120;48.796;9.796;2023-08-12T06:36:03;20.40;99.90
6174;DHT22;3120;48.796;9.796;2023-08-12T06:38:29;20.60;99.90
6174;DHT22;3120;48.796;9.796;2023-08-12T06:40:54;20.90;99.90
6174;DHT22;3120;48.796;9.796;2023-08-12T06:43:20;21.10;99.90
6174;DHT22;3120;48.796;9.796;2023-08-12T06:45:45;21.10;99.90
6174;DHT22;3120;48.796;9.796;2023-08-12T06:48:11;21.20;99.90
6174;DHT22;3120;48.796;9.796;2023-08-12T06:50:36;21.30;99.90
6174;DHT22;3120;48.796;9.796;2023-08-12T06:53:02;21.30;99.90
6174;DHT22;3120;48.796;9.796;2023-08-12T06:55:27;21.20;99.90
6174;DHT22;3120;48.796;9.796;2023-08-12T06:57:53;21.30;99.90
6174;DHT22;3120;48.796;9.796;2023-08-12T07:00:18;21.30;99.90
6174;DHT22;3120;48.796;9.796;2023-08-12T07:02:44;21.40;99.90
6174;DHT22;3120;48.796;9.796;2023-08-12T07:05:09;21.70;99.90
6174;DHT22;3120;48.796;9.796;2023-08-12T07:07:41;21.70;99.90
6174;DHT22;3120;48.796;9.796;2023-08-12T07:10:07;21.70;99.90
6174;DHT22;3120;48.796;9.796;2023-08-12T07:12:33;22.00;99.90
6174;DHT22;3120;48.796;9.796;2023-08-12T07:14:59;22.40;99.90
6174;DHT22;3120;48.796;9.796;2023-08-12T07:17:24;22.50;99.90
6174;DHT22;3120;48.796;9.796;2023-08-12T07:19:50;22.60;99.90
6174;DHT22;3120;48.796;9.796;2023-08-12T07:22:15;22.50;99.90
6174;DHT22;3120;48.796;9.796;2023-08-12T07:24:44;22.50;99.90
6174;DHT22;3120;48.796;9.796;2023-08-12T07:27:10;22.50;99.90
6174;DHT22;3120;48.796;9.796;2023-08-12T07:29:35;22.50;99.90
6174;DHT22;3120;48.796;9.796;2023-08-12T07:32:01;22.50;99.90
6174;DHT22;3120;48.796;9.796;2023-08-12T07:34:26;22.60;99.90
6174;DHT22;3120;48.796;9.796;2023-08-12T07:36:52;22.70;99.90
6174;DHT22;3120;48.796;9.796;2023-08-12T07:39:17;22.80;99.90
6174;DHT22;3120;48.796;9.796;2023-08-12T07:41:43;23.10;99.90
6174;DHT22;3120;48.796;9.796;2023-08-12T07:44:08;23.20;99.90
6174;DHT22;3120;48.796;9.796;2023-08-12T07:46:33;23.40;99.90
6174;DHT22;3120;48.796;9.796;2023-08-12T07:48:59;23.30;99.90
6174;DHT22;3120;48.796;9.796;2023-08-12T07:51:24;23.40;99.90
6174;DHT22;3120;48.796;9.796;2023-08-12T07:53:50;23.80;99.90
6174;DHT22;3120;48.796;9.796;2023-08-12T07:56:15;24.00;99.90
6174;DHT22;3120;48.796;9.796;2023-08-12T07:58:41;24.10;99.90
6174;DHT22;3120;48.796;9.796;2023-08-12T08:01:06;24.20;99.90
6174;DHT22;3120;48.796;9.796;2023-08-12T08:03:34;24.50;99.90
6174;DHT22;3120;48.796;9.796;2023-08-12T08:05:59;25.00;99.90
6174;DHT22;3120;48.796;9.796;2023-08-12T08:08:25;25.20;99.90
6174;DHT22;3120;48.796;9.796;2023-08-12T08:10:50;25.30;99.90
6174;DHT22;3120;48.796;9.796;2023-08-12T08:13:15;25.50;99.90
6174;DHT22;3120;48.796;9.796;2023-08-12T08:15:41;25.50;99.90
6174;DHT22;3120;48.796;9.796;2023-08-12T08:18:06;25.80;99.90
6174;DHT22;3120;48.796;9.796;2023-08-12T08:20:32;26.30;99.90
6174;DHT22;3120;48.796;9.796;2023-08-12T08:22:57;26.20;99.90
6174;DHT22;3120;48.796;9.796;2023-08-12T08:25:23;26.40;99.90
6174;DHT22;3120;48.796;9.796;2023-08-12T08:27:48;26.40;99.90
6174;DHT22;3120;48.796;9.796;2023-08-12T08:30:14;26.00;99.90
6174;DHT22;3120;48.796;9.796;2023-08-12T08:32:39;25.90;99.90
6174;DHT22;3120;48.796;9.796;2023-08-12T08:35:05;25.90;99.90
6174;DHT22;3120;48.796;9.796;2023-08-12T08:37:31;26.30;99.90
6174;DHT22;3120;48.796;9.796;2023-08-12T08:39:56;26.70;99.90
6174;DHT22;3120;48.796;9.796;2023-08-12T08:42:21;26.70;99.90
6174;DHT22;3120;48.796;9.796;2023-08-12T08:44:49;26.70;99.90
6174;DHT22;3120;48.796;9.796;2023-08-12T08:47:17;26.50;99.90
6174;DHT22;3120;48.796;9.796;2023-08-12T08:49:44;26.70;99.90
6174;DHT22;3120;48.796;9.796;2023-08-12T08:52:10;26.70;99.90
6174;DHT22;3120;48.796;9.796;2023-08-12T08:54:36;26.50;99.90
6174;DHT22;3120;48.796;9.796;2023-08-12T08:57:02;26.60;99.90
6174;DHT22;3120;48.796;9.796;2023-08-12T08:59:28;26.70;99.90
6174;DHT22;3120;48.796;9.796;2023-08-12T09:01:53;27.00;99.90
6174;DHT22;3120;48.796;9.796;2023-08-12T09:04:21;27.10;99.90
6174;DHT22;3120;48.796;9.796;2023-08-12T09:06:47;27.40;99.90
6174;DHT22;3120;48.796;9.796;2023-08-12T09:09:13;27.50;98.60
6174;DHT22;3120;48.796;9.796;2023-08-12T09:11:40;27.40;99.50
6174;DHT22;3120;48.796;9.796;2023-08-12T09:14:06;27.70;99.90
6174;DHT22;3120;48.796;9.796;2023-08-12T09:16:32;27.80;99.90
6174;DHT22;3120;48.796;9.796;2023-08-12T09:18:57;28.10;98.00
6174;DHT22;3120;48.796;9.796;2023-08-12T09:21:23;28.30;97.30
6174;DHT22;3120;48.796;9.796;2023-08-12T09:23:49;28.70;95.10
6174;DHT22;3120;48.796;9.796;2023-08-12T09:26:15;28.80;92.60
6174;DHT22;3120;48.796;9.796;2023-08-12T09:28:45;29.30;91.00
6174;DHT22;3120;48.796;9.796;2023-08-12T09:31:24;29.40;90.30
6174;DHT22;3120;48.796;9.796;2023-08-12T09:33:50;29.40;95.40
6174;DHT22;3120;48.796;9.796;2023-08-12T09:36:16;29.30;94.30
6174;DHT22;3120;48.796;9.796;2023-08-12T09:38:49;29.50;92.50
6174;DHT22;3120;48.796;9.796;2023-08-12T09:41:18;29.60;91.40
6174;DHT22;3120;48.796;9.796;2023-08-12T09:43:44;29.70;97.60
6174;DHT22;3120;48.796;9.796;2023-08-12T09:46:12;30.00;91.70
6174;DHT22;3120;48.796;9.796;2023-08-12T09:48:39;30.10;91.70
6174;DHT22;3120;48.796;9.796;2023-08-12T09:51:04;29.90;92.00
6174;DHT22;3120;48.796;9.796;2023-08-12T09:53:31;29.80;89.10
6174;DHT22;3120;48.796;9.796;2023-08-12T09:56:05;30.80;87.70
6174;DHT22;3120;48.796;9.796;2023-08-12T09:58:31;31.40;80.40
6174;DHT22;3120;48.796;9.796;2023-08-12T10:00:57;32.60;71.40
6174;DHT22;3120;48.796;9.796;2023-08-12T10:03:23;32.50;79.90
6174;DHT22;3120;48.796;9.796;2023-08-12T10:05:49;32.80;74.30
6174;DHT22;3120;48.796;9.796;2023-08-12T10:08:15;33.30;69.40
6174;DHT22;3120;48.796;9.796;2023-08-12T10:10:41;33.60;65.40
6174;DHT22;3120;48.796;9.796;2023-08-12T10:13:08;34.10;66.90
6174;DHT22;3120;48.796;9.796;2023-08-12T10:15:34;35.20;60.50
6174;DHT22;3120;48.796;9.796;2023-08-12T10:18:00;35.80;55.70
6174;DHT22;3120;48.796;9.796;2023-08-12T10:20:25;36.20;55.10
6174;DHT22;3120;48.796;9.796;2023-08-12T10:22:51;37.50;52.30
6174;DHT22;3120;48.796;9.796;2023-08-12T10:25:20;36.90;49.90
6174;DHT22;3120;48.796;9.796;2023-08-12T10:27:47;37.30;49.30
6174;DHT22;3120;48.796;9.796;2023-08-12T10:30:13;38.60;44.30
6174;DHT22;3120;48.796;9.796;2023-08-12T10:32:38;37.80;45.40
6174;DHT22;3120;48.796;9.796;2023-08-12T10:35:04;37.40;45.80
6174;DHT22;3120;48.796;9.796;2023-08-12T10:37:33;38.00;45.10
6174;DHT22;3120;48.796;9.796;2023-08-12T10:40:00;39.00;40.30
6174;DHT22;3120;48.796;9.796;2023-08-12T10:42:43;39.10;40.20
6174;DHT22;3120;48.796;9.796;2023-08-12T10:45:10;38.80;40.90
6174;DHT22;3120;48.796;9.796;2023-08-12T10:47:40;39.00;39.50
6174;DHT22;3120;48.796;9.796;2023-08-12T10:50:05;39.30;39.50
6174;DHT22;3120;48.796;9.796;2023-08-12T10:52:32;39.60;39.90
6174;DHT22;3120;48.796;9.796;2023-08-12T10:57:43;38.90;39.20
6174;DHT22;3120;48.796;9.796;2023-08-12T11:00:27;37.40;41.00
6174;DHT22;3120;48.796;9.796;2023-08-12T11:02:53;36.30;43.80
6174;DHT22;3120;48.796;9.796;2023-08-12T11:11:41;34.70;48.90
6174;DHT22;3120;48.796;9.796;2023-08-12T11:14:14;35.00;48.30
6174;DHT22;3120;48.796;9.796;2023-08-12T11:16:51;35.00;48.90
6174;DHT22;3120;48.796;9.796;2023-08-12T11:19:21;36.10;46.40
6174;DHT22;3120;48.796;9.796;2023-08-12T11:21:47;36.60;46.00
6174;DHT22;3120;48.796;9.796;2023-08-12T11:24:16;36.30;46.20
6174;DHT22;3120;48.796;9.796;2023-08-12T11:32:56;33.70;50.80
6174;DHT22;3120;48.796;9.796;2023-08-12T11:35:34;32.90;53.30
6174;DHT22;3120;48.796;9.796;2023-08-12T11:38:14;32.50;54.70
6174;DHT22;3120;48.796;9.796;2023-08-12T11:40:40;32.40;55.30
6174;DHT22;3120;48.796;9.796;2023-08-12T11:43:11;32.20;54.20
6174;DHT22;3120;48.796;9.796;2023-08-12T11:45:56;32.00;54.40
6174;DHT22;3120;48.796;9.796;2023-08-12T11:48:21;32.10;54.80
6174;DHT22;3120;48.796;9.796;2023-08-12T11:50:49;32.30;55.40
6174;DHT22;3120;48.796;9.796;2023-08-12T11:53:15;33.30;53.90
6174;DHT22;3120;48.796;9.796;2023-08-12T11:55:44;34.80;51.00
6174;DHT22;3120;48.796;9.796;2023-08-12T11:58:11;36.20;47.80
6174;DHT22;3120;48.796;9.796;2023-08-12T12:00:36;36.60;46.90
6174;DHT22;3120;48.796;9.796;2023-08-12T12:03:02;37.30;44.80
6174;DHT22;3120;48.796;9.796;2023-08-12T12:05:28;38.10;42.30
6174;DHT22;3120;48.796;9.796;2023-08-12T12:07:55;38.80;42.20
6174;DHT22;3120;48.796;9.796;2023-08-12T12:10:25;39.00;41.80
6174;DHT22;3120;48.796;9.796;2023-08-12T12:12:51;39.90;37.80
6174;DHT22;3120;48.796;9.796;2023-08-12T12:15:16;39.30;38.30
6174;DHT22;3120;48.796;9.796;2023-08-12T12:17:42;38.20;39.10
6174;DHT22;3120;48.796;9.796;2023-08-12T12:20:08;37.10;42.50
6174;DHT22;3120;48.796;9.796;2023-08-12T12:22:36;35.90;43.60
6174;DHT22;3120;48.796;9.796;2023-08-12T12:25:08;35.00;45.30
6174;DHT22;3120;48.796;9.796;2023-08-12T12:27:34;34.50;46.10
6174;DHT22;3120;48.796;9.796;2023-08-12T12:30:00;34.10;47.30
6174;DHT22;3120;48.796;9.796;2023-08-12T12:32:26;34.30;47.90
6174;DHT22;3120;48.796;9.796;2023-08-12T12:34:52;34.60;47.30
6174;DHT22;3120;48.796;9.796;2023-08-12T12:37:18;34.80;45.60
6174;DHT22;3120;48.796;9.796;2023-08-12T12:39:44;35.50;45.40
6174;DHT22;3120;48.796;9.796;2023-08-12T12:42:10;36.90;43.90
6174;DHT22;3120;48.796;9.796;2023-08-12T12:44:35;38.30;41.30
6174;DHT22;3120;48.796;9.796;2023-08-12T12:47:02;39.00;38.90
6174;DHT22;3120;48.796;9.796;2023-08-12T12:49:27;39.50;37.80
6174;DHT22;3120;48.796;9.796;2023-08-12T12:51:53;39.30;40.20
6174;DHT22;3120;48.796;9.796;2023-08-12T12:54:19;39.50;37.50
6174;DHT22;3120;48.796;9.796;2023-08-12T12:56:44;38.70;38.70
6174;DHT22;3120;48.796;9.796;2023-08-12T12:59:10;37.30;40.60
6174;DHT22;3120;48.796;9.796;2023-08-12T13:01:35;36.10;43.20
6174;DHT22;3120;48.796;9.796;2023-08-12T13:04:01;34.70;46.00
6174;DHT22;3120;48.796;9.796;2023-08-12T13:06:28;33.70;47.10
6174;DHT22;3120;48.796;9.796;2023-08-12T13:08:53;32.70;50.20
6174;DHT22;3120;48.796;9.796;2023-08-12T13:11:19;30.50;62.30
6174;DHT22;3120;48.796;9.796;2023-08-12T13:13:45;29.00;79.80
6174;DHT22;3120;48.796;9.796;2023-08-12T13:16:10;27.40;99.90
6174;DHT22;3120;48.796;9.796;2023-08-12T13:18:36;25.60;99.90
6174;DHT22;3120;48.796;9.796;2023-08-12T13:21:01;24.70;99.90
6174;DHT22;3120;48.796;9.796;2023-08-12T13:23:27;23.60;99.90
6174;DHT22;3120;48.796;9.796;2023-08-12T13:25:52;22.80;99.90
6174;DHT22;3120;48.796;9.796;2023-08-12T13:28:20;22.30;99.90
6174;DHT22;3120;48.796;9.796;2023-08-12T13:30:46;21.50;99.90
6174;DHT22;3120;48.796;9.796;2023-08-12T13:33:11;21.20;99.90
6174;DHT22;3120;48.796;9.796;2023-08-12T13:35:37;21.10;99.90
6174;DHT22;3120;48.796;9.796;2023-08-12T13:38:02;20.90;99.90
6174;DHT22;3120;48.796;9.796;2023-08-12T13:40:29;21.00;99.90
6174;DHT22;3120;48.796;9.796;2023-08-12T13:42:54;21.00;99.90
6174;DHT22;3120;48.796;9.796;2023-08-12T13:45:21;21.10;99.90
6174;DHT22;3120;48.796;9.796;2023-08-12T13:47:50;21.20;99.90
6174;DHT22;3120;48.796;9.796;2023-08-12T13:50:25;21.00;99.90
6174;DHT22;3120;48.796;9.796;2023-08-12T13:52:58;20.90;99.90
6174;DHT22;3120;48.796;9.796;2023-08-12T13:58:22;21.00;99.90
6174;DHT22;3120;48.796;9.796;2023-08-12T14:00:47;21.00;99.90
6174;DHT22;3120;48.796;9.796;2023-08-12T14:03:13;21.10;99.90
6174;DHT22;3120;48.796;9.796;2023-08-12T14:05:38;21.10;99.90
6174;DHT22;3120;48.796;9.796;2023-08-12T14:08:04;21.20;99.90
6174;DHT22;3120;48.796;9.796;2023-08-12T14:10:31;21.30;99.90
6174;DHT22;3120;48.796;9.796;2023-08-12T14:12:56;21.50;99.90
6174;DHT22;3120;48.796;9.796;2023-08-12T14:15:23;21.50;99.90
6174;DHT22;3120;48.796;9.796;2023-08-12T14:17:48;21.30;99.90
6174;DHT22;3120;48.796;9.796;2023-08-12T14:20:14;21.60;99.90
6174;DHT22;3120;48.796;9.796;2023-08-12T14:22:40;21.60;99.90
6174;DHT22;3120;48.796;9.796;2023-08-12T14:25:06;21.50;99.90
6174;DHT22;3120;48.796;9.796;2023-08-12T14:27:32;21.60;99.90
6174;DHT22;3120;48.796;9.796;2023-08-12T14:29:57;21.70;99.90
6174;DHT22;3120;48.796;9.796;2023-08-12T14:32:23;21.80;99.90
6174;DHT22;3120;48.796;9.796;2023-08-12T14:34:48;22.00;99.90
6174;DHT22;3120;48.796;9.796;2023-08-12T14:37:14;22.20;99.90
6174;DHT22;3120;48.796;9.796;2023-08-12T14:39:39;22.50;99.90
6174;DHT22;3120;48.796;9.796;2023-08-12T14:42:05;23.10;99.90
6174;DHT22;3120;48.796;9.796;2023-08-12T14:44:31;23.70;99.90
6174;DHT22;3120;48.796;9.796;2023-08-12T14:46:58;23.70;99.90
6174;DHT22;3120;48.796;9.796;2023-08-12T14:49:24;23.50;99.90
6174;DHT22;3120;48.796;9.796;2023-08-12T14:51:49;23.80;99.90
6174;DHT22;3120;48.796;9.796;2023-08-12T14:54:15;24.50;99.90
6174;DHT22;3120;48.796;9.796;2023-08-12T14:56:44;25.40;99.90
6174;DHT22;3120;48.796;9.796;2023-08-12T14:59:35;26.10;99.90
6174;DHT22;3120;48.796;9.796;2023-08-12T15:08:39;28.80;99.90
6174;DHT22;3120;48.796;9.796;2023-08-12T15:11:34;29.50;99.90
6174;DHT22;3120;48.796;9.796;2023-08-12T15:14:00;29.90;99.90
6174;DHT22;3120;48.796;9.796;2023-08-12T15:16:25;30.20;99.90
6174;DHT22;3120;48.796;9.796;2023-08-12T15:19:00;30.30;99.90
6174;DHT22;3120;48.796;9.796;2023-08-12T15:21:26;30.50;99.90
6174;DHT22;3120;48.796;9.796;2023-08-12T15:23:51;30.80;99.90
6174;DHT22;3120;48.796;9.796;2023-08-12T15:26:17;31.00;99.90
6174;DHT22;3120;48.796;9.796;2023-08-12T15:28:43;31.00;99.90
6174;DHT22;3120;48.796;9.796;2023-08-12T15:31:12;31.00;99.90
6174;DHT22;3120;48.796;9.796;2023-08-12T15:33:38;30.60;99.90
6174;DHT22;3120;48.796;9.796;2023-08-12T15:36:04;30.10;99.90
6174;DHT22;3120;48.796;9.796;2023-08-12T15:38:30;30.40;99.90
6174;DHT22;3120;48.796;9.796;2023-08-12T15:40:55;30.70;99.90
6174;DHT22;3120;48.796;9.796;2023-08-12T15:43:21;31.10;99.60
6174;DHT22;3120;48.796;9.796;2023-08-12T15:45:49;32.00;96.10
6174;DHT22;3120;48.796;9.796;2023-08-12T15:48:15;32.50;93.00
6174;DHT22;3120;48.796;9.796;2023-08-12T15:53:44;32.50;92.80
6174;DHT22;3120;48.796;9.796;2023-08-12T15:56:10;31.90;94.60
6174;DHT22;3120;48.796;9.796;2023-08-12T15:58:36;31.70;94.20
6174;DHT22;3120;48.796;9.796;2023-08-12T16:01:01;31.60;92.60
6174;DHT22;3120;48.796;9.796;2023-08-12T16:03:27;31.90;93.00
6174;DHT22;3120;48.796;9.796;2023-08-12T16:05:57;31.20;93.20
6174;DHT22;3120;48.796;9.796;2023-08-12T16:08:31;30.00;95.80
6174;DHT22;3120;48.796;9.796;2023-08-12T16:10:57;29.20;98.70
6174;DHT22;3120;48.796;9.796;2023-08-12T16:13:25;28.60;99.90
6174;DHT22;3120;48.796;9.796;2023-08-12T16:15:51;27.90;99.90
6174;DHT22;3120;48.796;9.796;2023-08-12T16:18:16;27.80;99.90
6174;DHT22;3120;48.796;9.796;2023-08-12T16:20:42;27.50;99.90
6174;DHT22;3120;48.796;9.796;2023-08-12T16:23:11;27.30;99.90
6174;DHT22;3120;48.796;9.796;2023-08-12T16:41:05;26.30;99.90
6174;DHT22;3120;48.796;9.796;2023-08-12T16:43:30;26.20;99.90
6174;DHT22;3120;48.796;9.796;2023-08-12T16:45:56;26.10;99.90
6174;DHT22;3120;48.796;9.796;2023-08-12T16:48:21;26.00;99.90
6174;DHT22;3120;48.796;9.796;2023-08-12T16:50:47;25.80;99.90
6174;DHT22;3120;48.796;9.796;2023-08-12T16:53:12;25.70;99.90
6174;DHT22;3120;48.796;9.796;2023-08-12T16:55:41;25.20;99.90
6174;DHT22;3120;48.796;9.796;2023-08-12T16:58:08;25.00;99.90
6174;DHT22;3120;48.796;9.796;2023-08-12T17:00:36;24.90;99.90
6174;DHT22;3120;48.796;9.796;2023-08-12T17:03:01;24.80;99.90
6174;DHT22;3120;48.796;9.796;2023-08-12T17:05:27;24.30;99.90
6174;DHT22;3120;48.796;9.796;2023-08-12T17:07:52;24.30;99.90
6174;DHT22;3120;48.796;9.796;2023-08-12T17:10:18;24.20;99.90
6174;DHT22;3120;48.796;9.796;2023-08-12T17:12:44;24.20;99.90
6174;DHT22;3120;48.796;9.796;2023-08-12T17:15:10;24.30;99.90
6174;DHT22;3120;48.796;9.796;2023-08-12T17:17:36;24.30;99.90
6174;DHT22;3120;48.796;9.796;2023-08-12T17:20:02;24.10;99.90
6174;DHT22;3120;48.796;9.796;2023-08-12T17:22:28;24.10;99.90
6174;DHT22;3120;48.796;9.796;2023-08-12T17:24:54;24.00;99.90
6174;DHT22;3120;48.796;9.796;2023-08-12T17:27:19;23.90;99.90
6174;DHT22;3120;48.796;9.796;2023-08-12T17:29:45;23.80;99.90
6174;DHT22;3120;48.796;9.796;2023-08-12T17:32:11;23.80;99.90
6174;DHT22;3120;48.796;9.796;2023-08-12T17:34:36;23.90;99.90
6174;DHT22;3120;48.796;9.796;2023-08-12T17:37:02;24.30;99.90
6174;DHT22;3120;48.796;9.796;2023-08-12T17:39:28;25.00;99.90
6174;DHT22;3120;48.796;9.796;2023-08-12T17:41:54;25.40;99.90
6174;DHT22;3120;48.796;9.796;2023-08-12T17:44:20;25.50;99.90
6174;DHT22;3120;48.796;9.796;2023-08-12T17:46:45;25.40;99.90
6174;DHT22;3120;48.796;9.796;2023-08-12T17:49:11;25.30;99.90
6174;DHT22;3120;48.796;9.796;2023-08-12T17:51:36;25.10;99.90
6174;DHT22;3120;48.796;9.796;2023-08-12T17:54:02;24.90;99.90
6174;DHT22;3120;48.796;9.796;2023-08-12T17:56:31;25.00;99.90
6174;DHT22;3120;48.796;9.796;2023-08-12T17:59:09;24.90;99.90
6174;DHT22;3120;48.796;9.796;2023-08-12T18:01:48;24.90;99.90
6174;DHT22;3120;48.796;9.796;2023-08-12T18:04:14;24.90;99.90
6174;DHT22;3120;48.796;9.796;2023-08-12T18:06:40;25.10;99.90
6174;DHT22;3120;48.796;9.796;2023-08-12T18:09:06;25.30;99.90
6174;DHT22;3120;48.796;9.796;2023-08-12T18:11:31;25.30;99.90
6174;DHT22;3120;48.796;9.796;2023-08-12T18:14:08;24.90;99.90
6174;DHT22;3120;48.796;9.796;2023-08-12T18:56:37;23.30;99.90
6174;DHT22;3120;48.796;9.796;2023-08-12T18:59:03;23.20;99.90
6174;DHT22;3120;48.796;9.796;2023-08-12T19:01:28;23.20;99.90
6174;DHT22;3120;48.796;9.796;2023-08-12T19:03:54;23.10;99.90
6174;DHT22;3120;48.796;9.796;2023-08-12T19:06:19;23.00;99.90
6174;DHT22;3120;48.796;9.796;2023-08-12T19:08:45;23.00;99.90
6174;DHT22;3120;48.796;9.796;2023-08-12T19:11:10;23.00;99.90
6174;DHT22;3120;48.796;9.796;2023-08-12T19:13:36;22.90;99.90
6174;DHT22;3120;48.796;9.796;2023-08-12T19:16:01;22.70;99.90
6174;DHT22;3120;48.796;9.796;2023-08-12T19:18:27;22.60;99.90
6174;DHT22;3120;48.796;9.796;2023-08-12T19:20:52;22.50;99.90
6174;DHT22;3120;48.796;9.796;2023-08-12T19:23:18;22.50;99.90
6174;DHT22;3120;48.796;9.796;2023-08-12T19:25:50;22.40;99.90
6174;DHT22;3120;48.796;9.796;2023-08-12T19:28:16;22.40;99.90
6174;DHT22;3120;48.796;9.796;2023-08-12T19:30:41;22.60;99.90
6174;DHT22;3120;48.796;9.796;2023-08-12T19:33:07;22.50;99.90
6174;DHT22;3120;48.796;9.796;2023-08-12T19:35:33;22.50;99.90
6174;DHT22;3120;48.796;9.796;2023-08-12T19:37:58;22.30;99.90
6174;DHT22;3120;48.796;9.796;2023-08-12T19:40:24;22.30;99.90
6174;DHT22;3120;48.796;9.796;2023-08-12T19:42:50;22.30;99.90
6174;DHT22;3120;48.796;9.796;2023-08-12T19:45:16;22.40;99.90
6174;DHT22;3120;48.796;9.796;2023-08-12T19:47:42;22.50;99.90
6174;DHT22;3120;48.796;9.796;2023-08-12T19:50:09;22.60;99.90
6174;DHT22;3120;48.796;9.796;2023-08-12T19:52:34;22.70;99.90
6174;DHT22;3120;48.796;9.796;2023-08-12T19:55:00;22.70;99.90
6174;DHT22;3120;48.796;9.796;2023-08-12T19:57:26;22.70;99.90
6174;DHT22;3120;48.796;9.796;2023-08-12T19:59:52;22.50;99.90
6174;DHT22;3120;48.796;9.796;2023-08-12T20:02:17;22.60;99.90
6174;DHT22;3120;48.796;9.796;2023-08-12T20:04:44;22.60;99.90
6174;DHT22;3120;48.796;9.796;2023-08-12T20:07:09;22.50;99.90
6174;DHT22;3120;48.796;9.796;2023-08-12T20:09:35;22.40;99.90
6174;DHT22;3120;48.796;9.796;2023-08-12T20:12:00;22.30;99.90
6174;DHT22;3120;48.796;9.796;2023-08-12T20:14:26;22.30;99.90
6174;DHT22;3120;48.796;9.796;2023-08-12T20:16:51;22.30;99.90
6174;DHT22;3120;48.796;9.796;2023-08-12T20:19:17;22.10;99.90
6174;DHT22;3120;48.796;9.796;2023-08-12T20:21:42;22.00;99.90
6174;DHT22;3120;48.796;9.796;2023-08-12T20:24:08;22.30;99.90
6174;DHT22;3120;48.796;9.796;2023-08-12T20:26:33;22.50;99.90
6174;DHT22;3120;48.796;9.796;2023-08-12T20:28:59;22.60;99.90
6174;DHT22;3120;48.796;9.796;2023-08-12T20:31:25;22.70;99.90
6174;DHT22;3120;48.796;9.796;2023-08-12T20:33:50;22.50;99.90
6174;DHT22;3120;48.796;9.796;2023-08-12T20:36:16;22.50;99.90
6174;DHT22;3120;48.796;9.796;2023-08-12T20:38:41;22.30;99.90
6174;DHT22;3120;48.796;9.796;2023-08-12T20:41:07;22.50;99.90
6174;DHT22;3120;48.796;9.796;2023-08-12T20:43:32;22.60;99.90
6174;DHT22;3120;48.796;9.796;2023-08-12T20:45:58;22.70;99.90
6174;DHT22;3120;48.796;9.796;2023-08-12T20:48:23;22.70;99.90
6174;DHT22;3120;48.796;9.796;2023-08-12T20:50:48;22.40;99.90
6174;DHT22;3120;48.796;9.796;2023-08-12T20:53:14;22.30;99.90
6174;DHT22;3120;48.796;9.796;2023-08-12T20:55:40;22.10;99.90
6174;DHT22;3120;48.796;9.796;2023-08-12T20:58:06;22.10;99.90
6174;DHT22;3120;48.796;9.796;2023-08-12T21:00:32;22.20;99.90
6174;DHT22;3120;48.796;9.796;2023-08-12T21:02:57;22.40;99.90
6174;DHT22;3120;48.796;9.796;2023-08-12T21:05:23;22.40;99.90
6174;DHT22;3120;48.796;9.796;2023-08-12T21:07:48;22.40;99.90
6174;DHT22;3120;48.796;9.796;2023-08-12T21:10:14;22.50;99.90
6174;DHT22;3120;48.796;9.796;2023-08-12T21:12:40;22.40;99.90
6174;DHT22;3120;48.796;9.796;2023-08-12T21:15:06;22.60;99.90
6174;DHT22;3120;48.796;9.796;2023-08-12T21:17:31;22.50;99.90
6174;DHT22;3120;48.796;9.796;2023-08-12T21:19:57;22.60;99.90
6174;DHT22;3120;48.796;9.796;2023-08-12T21:22:23;22.70;99.90
6174;DHT22;3120;48.796;9.796;2023-08-12T21:24:48;22.50;99.90
6174;DHT22;3120;48.796;9.796;2023-08-12T21:27:14;22.60;99.90
6174;DHT22;3120;48.796;9.796;2023-08-12T21:29:40;22.40;99.90
6174;DHT22;3120;48.796;9.796;2023-08-12T21:32:05;22.30;99.90
6174;DHT22;3120;48.796;9.796;2023-08-12T21:34:31;22.30;99.90
6174;DHT22;3120;48.796;9.796;2023-08-12T21:36:56;22.40;99.90
6174;DHT22;3120;48.796;9.796;2023-08-12T21:39:22;22.50;99.90
6174;DHT22;3120;48.796;9.796;2023-08-12T21:41:47;22.40;99.90
6174;DHT22;3120;48.796;9.796;2023-08-12T21:44:13;22.10;99.90
6174;DHT22;3120;48.796;9.796;2023-08-12T21:46:38;21.90;99.90
6174;DHT22;3120;48.796;9.796;2023-08-12T21:49:04;21.90;99.90
6174;DHT22;3120;48.796;9.796;2023-08-12T21:51:30;21.90;99.90
6174;DHT22;3120;48.796;9.796;2023-08-12T21:53:55;22.00;99.90
6174;DHT22;3120;48.796;9.796;2023-08-12T21:56:20;22.20;99.90
6174;DHT22;3120;48.796;9.796;2023-08-12T21:58:46;22.00;99.90
6174;DHT22;3120;48.796;9.796;2023-08-12T22:01:12;22.10;99.90
6174;DHT22;3120;48.796;9.796;2023-08-12T22:03:37;22.10;99.90
6174;DHT22;3120;48.796;9.796;2023-08-12T22:06:03;22.00;99.90
6174;DHT22;3120;48.796;9.796;2023-08-12T22:08:28;22.00;99.90
6174;DHT22;3120;48.796;9.796;2023-08-12T22:10:54;21.90;99.90
6174;DHT22;3120;48.796;9.796;2023-08-12T22:13:19;21.80;99.90
6174;DHT22;3120;48.796;9.796;2023-08-12T22:15:45;21.90;99.90
6174;DHT22;3120;48.796;9.796;2023-08-12T22:18:10;21.80;99.90
6174;DHT22;3120;48.796;9.796;2023-08-12T22:20:36;21.60;99.90
6174;DHT22;3120;48.796;9.796;2023-08-12T22:23:01;21.40;99.90
6174;DHT22;3120;48.796;9.796;2023-08-12T22:25:27;21.50;99.90
6174;DHT22;3120;48.796;9.796;2023-08-12T22:27:52;21.70;99.90
6174;DHT22;3120;48.796;9.796;2023-08-12T22:30:18;21.80;99.90
6174;DHT22;3120;48.796;9.796;2023-08-12T22:32:43;21.90;99.90
6174;DHT22;3120;48.796;9.796;2023-08-12T22:35:10;21.90;99.90
6174;DHT22;3120;48.796;9.796;2023-08-12T22:37:36;22.00;99.90
6174;DHT22;3120;48.796;9.796;2023-08-12T22:40:01;21.90;99.90
6174;DHT22;3120;48.796;9.796;2023-08-12T22:42:28;22.00;99.90
6174;DHT22;3120;48.796;9.796;2023-08-12T22:44:53;22.10;99.90
6174;DHT22;3120;48.796;9.796;2023-08-12T22:47:19;22.10;99.90
6174;DHT22;3120;48.796;9.796;2023-08-12T22:49:45;21.90;99.90
6174;DHT22;3120;48.796;9.796;2023-08-12T22:52:10;21.60;99.90
6174;DHT22;3120;48.796;9.796;2023-08-12T22:54:36;21.50;99.90
6174;DHT22;3120;48.796;9.796;2023-08-12T22:57:01;21.50;99.90
6174;DHT22;3120;48.796;9.796;2023-08-12T22:59:27;21.50;99.90
6174;DHT22;3120;48.796;9.796;2023-08-12T23:01:52;21.30;99.90
6174;DHT22;3120;48.796;9.796;2023-08-12T23:04:18;21.30;99.90
6174;DHT22;3120;48.796;9.796;2023-08-12T23:06:43;21.00;99.90
6174;DHT22;3120;48.796;9.796;2023-08-12T23:09:08;20.90;99.90
6174;DHT22;3120;48.796;9.796;2023-08-12T23:11:34;20.80;99.90
6174;DHT22;3120;48.796;9.796;2023-08-12T23:13:59;20.70;99.90
6174;DHT22;3120;48.796;9.796;2023-08-12T23:16:26;20.50;99.90
6174;DHT22;3120;48.796;9.796;2023-08-12T23:18:53;20.40;99.90
6174;DHT22;3120;48.796;9.796;2023-08-12T23:21:19;20.40;99.90
6174;DHT22;3120;48.796;9.796;2023-08-12T23:23:44;20.50;99.90
6174;DHT22;3120;48.796;9.796;2023-08-12T23:26:10;20.40;99.90
6174;DHT22;3120;48.796;9.796;2023-08-12T23:28:35;20.40;99.90
6174;DHT22;3120;48.796;9.796;2023-08-12T23:31:01;20.30;99.90
6174;DHT22;3120;48.796;9.796;2023-08-12T23:33:26;20.40;99.90
6174;DHT22;3120;48.796;9.796;2023-08-12T23:35:52;20.20;99.90
6174;DHT22;3120;48.796;9.796;2023-08-12T23:38:17;20.30;99.90